createdAt,value
2018-06-05T00:00:50.284Z,1010.68
2018-06-05T00:01:50.194Z,1010.73
2018-06-05T00:02:50.191Z,1010.73
2018-06-05T00:03:50.190Z,1010.72
2018-06-05T00:04:50.193Z,1010.75
2018-06-05T00:05:50.228Z,1010.78
2018-06-05T00:06:50.183Z,1010.75
2018-06-05T00:07:50.191Z,1010.78
2018-06-05T00:08:50.187Z,1010.81
2018-06-05T00:09:50.245Z,1010.83
2018-06-05T00:10:50.191Z,1010.77
2018-06-05T00:11:50.180Z,1010.8
2018-06-05T00:12:50.206Z,1010.81
2018-06-05T00:13:50.262Z,1010.8
2018-06-05T00:14:50.211Z,1010.81
2018-06-05T00:15:50.217Z,1010.78
2018-06-05T00:16:50.198Z,1010.76
2018-06-05T00:17:50.216Z,1010.76
2018-06-05T00:18:50.239Z,1010.77
2018-06-05T00:19:50.213Z,1010.76
2018-06-05T00:20:50.198Z,1010.76
2018-06-05T00:21:50.205Z,1010.78
2018-06-05T00:22:50.190Z,1010.78
2018-06-05T00:23:50.335Z,1010.82
2018-06-05T00:24:50.194Z,1010.8
2018-06-05T00:25:50.202Z,1010.79
2018-06-05T00:26:50.280Z,1010.83
2018-06-05T00:27:50.198Z,1010.85
2018-06-05T00:28:50.204Z,1010.86
2018-06-05T00:29:50.470Z,1010.87
2018-06-05T00:30:50.191Z,1010.87
2018-06-05T00:31:50.222Z,1010.86
2018-06-05T00:32:50.188Z,1010.86
2018-06-05T00:33:50.259Z,1010.92
2018-06-05T00:34:50.209Z,1010.89
2018-06-05T00:35:50.188Z,1010.89
2018-06-05T00:36:50.211Z,1010.91
2018-06-05T00:37:50.397Z,1010.88
2018-06-05T00:38:50.334Z,1010.91
2018-06-05T00:39:50.240Z,1010.91
2018-06-05T00:40:50.184Z,1010.88
2018-06-05T00:41:50.184Z,1010.87
2018-06-05T00:42:50.190Z,1010.88
2018-06-05T00:43:50.230Z,1010.87
2018-06-05T00:44:50.186Z,1010.87
2018-06-05T00:45:50.278Z,1010.88
2018-06-05T00:46:50.449Z,1010.91
2018-06-05T00:47:50.193Z,1010.88
2018-06-05T00:48:50.199Z,1010.91
2018-06-05T00:49:50.203Z,1010.94
2018-06-05T00:50:50.182Z,1010.97
2018-06-05T00:51:50.186Z,1010.96
2018-06-05T00:52:50.364Z,1010.98
2018-06-05T00:53:50.367Z,1010.96
2018-06-05T00:54:50.186Z,1010.91
2018-06-05T00:55:50.223Z,1010.93
2018-06-05T00:56:50.187Z,1010.92
2018-06-05T00:57:51.007Z,1010.91
2018-06-05T00:58:50.174Z,1010.88
2018-06-05T00:59:50.175Z,1010.88
2018-06-05T01:00:50.203Z,1010.92
2018-06-05T01:01:50.346Z,1010.9
2018-06-05T01:02:50.190Z,1010.93
2018-06-05T01:03:50.471Z,1010.93
2018-06-05T01:04:50.179Z,1011
2018-06-05T01:05:50.252Z,1011
2018-06-05T01:06:50.203Z,1010.97
2018-06-05T01:07:50.398Z,1010.94
2018-06-05T01:08:50.852Z,1010.99
2018-06-05T01:09:50.175Z,1011.02
2018-06-05T01:10:50.207Z,1011.02
2018-06-05T01:11:50.162Z,1011.03
2018-06-05T01:12:50.191Z,1011.02
2018-06-05T01:13:50.383Z,1011.02
2018-06-05T01:14:50.180Z,1010.97
2018-06-05T01:15:50.174Z,1010.99
2018-06-05T01:16:50.199Z,1010.96
2018-06-05T01:17:51.513Z,1010.99
2018-06-05T01:18:50.179Z,1011.01
2018-06-05T01:19:50.166Z,1011.03
2018-06-05T01:20:50.186Z,1011.04
2018-06-05T01:21:50.208Z,1011.04
2018-06-05T01:22:50.238Z,1011
2018-06-05T01:23:50.319Z,1011.06
2018-06-05T01:24:50.175Z,1011.05
2018-06-05T01:25:50.211Z,1011.09
2018-06-05T01:26:50.183Z,1011.04
2018-06-05T01:27:50.159Z,1011.04
2018-06-05T01:28:50.173Z,1011.04
2018-06-05T01:29:50.174Z,1011.02
2018-06-05T01:30:50.211Z,1011.02
2018-06-05T01:31:50.237Z,1011.07
2018-06-05T01:32:50.186Z,1011.08
2018-06-05T01:33:50.170Z,1011.08
2018-06-05T01:34:50.153Z,1011.13
2018-06-05T01:35:50.173Z,1011.07
2018-06-05T01:36:50.167Z,1011.1
2018-06-05T01:37:50.176Z,1011.14
2018-06-05T01:38:50.193Z,1011.15
2018-06-05T01:39:50.178Z,1011.14
2018-06-05T01:40:50.179Z,1011.09
2018-06-05T01:41:50.312Z,1011.12
2018-06-05T01:42:50.181Z,1011.13
2018-06-05T01:43:50.252Z,1011.14
2018-06-05T01:44:50.178Z,1011.16
2018-06-05T01:45:50.334Z,1011.13
2018-06-05T01:46:50.173Z,1011.09
2018-06-05T01:47:50.176Z,1011.14
2018-06-05T01:48:50.204Z,1011.18
2018-06-05T01:49:50.283Z,1011.19
2018-06-05T01:50:50.194Z,1011.23
2018-06-05T01:51:50.204Z,1011.19
2018-06-05T01:52:50.185Z,1011.19
2018-06-05T01:53:50.170Z,1011.19
2018-06-05T01:54:50.170Z,1011.16
2018-06-05T01:55:50.172Z,1011.13
2018-06-05T01:56:50.178Z,1011.2
2018-06-05T01:57:50.190Z,1011.18
2018-06-05T01:58:50.219Z,1011.17
2018-06-05T01:59:50.185Z,1011.2
2018-06-05T02:00:50.211Z,1011.17
2018-06-05T02:01:50.154Z,1011.2
2018-06-05T02:02:50.144Z,1011.21
2018-06-05T02:03:50.265Z,1011.2
2018-06-05T02:04:50.179Z,1011.24
2018-06-05T02:05:50.178Z,1011.18
2018-06-05T02:06:50.227Z,1011.2
2018-06-05T02:07:50.187Z,1011.2
2018-06-05T02:08:50.165Z,1011.2
2018-06-05T02:09:50.209Z,1011.2
2018-06-05T02:10:50.240Z,1011.19
2018-06-05T02:11:50.163Z,1011.19
2018-06-05T02:12:50.160Z,1011.17
2018-06-05T02:13:50.147Z,1011.19
2018-06-05T02:14:50.154Z,1011.19
2018-06-05T02:15:50.162Z,1011.18
2018-06-05T02:16:50.194Z,1011.2
2018-06-05T02:17:50.160Z,1011.21
2018-06-05T02:18:50.168Z,1011.2
2018-06-05T02:19:50.179Z,1011.22
2018-06-05T02:20:50.154Z,1011.18
2018-06-05T02:21:50.156Z,1011.24
2018-06-05T02:22:50.157Z,1011.22
2018-06-05T02:23:50.162Z,1011.2
2018-06-05T02:24:50.154Z,1011.2
2018-06-05T02:25:50.157Z,1011.22
2018-06-05T02:26:50.166Z,1011.2
2018-06-05T02:27:50.158Z,1011.23
2018-06-05T02:28:50.160Z,1011.29
2018-06-05T02:29:50.160Z,1011.32
2018-06-05T02:30:50.150Z,1011.32
2018-06-05T02:31:50.153Z,1011.32
2018-06-05T02:32:50.182Z,1011.31
2018-06-05T02:33:50.207Z,1011.35
2018-06-05T02:34:50.170Z,1011.33
2018-06-05T02:35:50.156Z,1011.33
2018-06-05T02:36:50.220Z,1011.32
2018-06-05T02:37:50.165Z,1011.33
2018-06-05T02:38:50.308Z,1011.34
2018-06-05T02:39:50.163Z,1011.35
2018-06-05T02:40:50.159Z,1011.34
2018-06-05T02:41:50.254Z,1011.3
2018-06-05T02:42:50.225Z,1011.29
2018-06-05T02:43:50.141Z,1011.35
2018-06-05T02:44:50.145Z,1011.33
2018-06-05T02:45:50.147Z,1011.35
2018-06-05T02:46:50.153Z,1011.39
2018-06-05T02:47:50.157Z,1011.37
2018-06-05T02:48:50.267Z,1011.4
2018-06-05T02:49:50.171Z,1011.38
2018-06-05T02:50:50.178Z,1011.42
2018-06-05T02:51:50.153Z,1011.39
2018-06-05T02:52:50.567Z,1011.44
2018-06-05T02:53:50.152Z,1011.46
2018-06-05T02:54:50.185Z,1011.45
2018-06-05T02:55:50.179Z,1011.46
2018-06-05T02:56:50.152Z,1011.5
2018-06-05T02:57:50.177Z,1011.45
2018-06-05T02:58:50.161Z,1011.47
2018-06-05T02:59:50.143Z,1011.48
2018-06-05T03:00:50.187Z,1011.51
2018-06-05T03:01:50.152Z,1011.53
2018-06-05T03:02:50.156Z,1011.52
2018-06-05T03:03:50.203Z,1011.51
2018-06-05T03:04:50.149Z,1011.52
2018-06-05T03:05:50.522Z,1011.58
2018-06-05T03:06:50.153Z,1011.55
2018-06-05T03:07:50.321Z,1011.57
2018-06-05T03:08:50.149Z,1011.57
2018-06-05T03:09:50.157Z,1011.56
2018-06-05T03:10:50.238Z,1011.59
2018-06-05T03:11:50.170Z,1011.61
2018-06-05T03:12:50.176Z,1011.65
2018-06-05T03:13:50.172Z,1011.62
2018-06-05T03:14:50.163Z,1011.61
2018-06-05T03:15:50.174Z,1011.62
2018-06-05T03:16:50.280Z,1011.62
2018-06-05T03:17:50.290Z,1011.64
2018-06-05T03:18:50.143Z,1011.64
2018-06-05T03:19:50.152Z,1011.68
2018-06-05T03:20:50.139Z,1011.66
2018-06-05T03:21:50.433Z,1011.68
2018-06-05T03:22:50.157Z,1011.68
2018-06-05T03:23:50.204Z,1011.71
2018-06-05T03:24:50.184Z,1011.67
2018-06-05T03:25:50.134Z,1011.71
2018-06-05T03:26:50.160Z,1011.7
2018-06-05T03:27:50.142Z,1011.69
2018-06-05T03:28:50.165Z,1011.71
2018-06-05T03:29:50.128Z,1011.72
2018-06-05T03:30:50.182Z,1011.7
2018-06-05T03:31:50.177Z,1011.74
2018-06-05T03:32:50.140Z,1011.71
2018-06-05T03:33:50.139Z,1011.71
2018-06-05T03:34:50.145Z,1011.71
2018-06-05T03:35:50.171Z,1011.7
2018-06-05T03:36:50.149Z,1011.73
2018-06-05T03:37:50.154Z,1011.73
2018-06-05T03:38:50.154Z,1011.7
2018-06-05T03:39:50.136Z,1011.75
2018-06-05T03:40:50.208Z,1011.74
2018-06-05T03:41:50.248Z,1011.75
2018-06-05T03:42:50.142Z,1011.79
2018-06-05T03:43:50.204Z,1011.77
2018-06-05T03:44:50.146Z,1011.79
2018-06-05T03:45:50.150Z,1011.78
2018-06-05T03:46:50.182Z,1011.8
2018-06-05T03:47:50.162Z,1011.79
2018-06-05T03:48:50.142Z,1011.79
2018-06-05T03:49:50.126Z,1011.85
2018-06-05T03:50:50.125Z,1011.84
2018-06-05T03:51:50.146Z,1011.88
2018-06-05T03:52:50.171Z,1011.9
2018-06-05T03:53:50.135Z,1011.88
2018-06-05T03:54:50.150Z,1011.89
2018-06-05T03:55:50.144Z,1011.93
2018-06-05T03:56:50.129Z,1011.94
2018-06-05T03:57:50.206Z,1011.96
2018-06-05T03:58:50.152Z,1011.96
2018-06-05T03:59:50.122Z,1011.93
2018-06-05T04:00:50.151Z,1011.96
2018-06-05T04:01:50.210Z,1011.97
2018-06-05T04:02:50.171Z,1011.95
2018-06-05T04:03:50.174Z,1011.95
2018-06-05T04:04:50.133Z,1011.95
2018-06-05T04:05:50.145Z,1011.91
2018-06-05T04:06:50.132Z,1011.93
2018-06-05T04:07:50.169Z,1011.92
2018-06-05T04:08:50.152Z,1011.85
2018-06-05T04:09:50.125Z,1011.84
2018-06-05T04:10:50.147Z,1011.84
2018-06-05T04:11:50.181Z,1011.82
2018-06-05T04:12:50.176Z,1011.86
2018-06-05T04:13:50.296Z,1011.85
2018-06-05T04:14:50.116Z,1011.85
2018-06-05T04:15:50.139Z,1011.89
2018-06-05T04:16:50.178Z,1011.86
2018-06-05T04:17:50.124Z,1011.87
2018-06-05T04:18:50.348Z,1011.87
2018-06-05T04:19:50.269Z,1011.85
2018-06-05T04:20:50.218Z,1011.88
2018-06-05T04:21:50.115Z,1011.94
2018-06-05T04:22:50.132Z,1011.96
2018-06-05T04:23:50.260Z,1011.88
2018-06-05T04:24:50.131Z,1011.86
2018-06-05T04:25:50.902Z,1011.9
2018-06-05T04:26:50.276Z,1011.85
2018-06-05T04:27:50.164Z,1011.85
2018-06-05T04:28:50.143Z,1011.87
2018-06-05T04:29:50.116Z,1011.89
2018-06-05T04:30:50.120Z,1011.91
2018-06-05T04:31:50.133Z,1011.91
2018-06-05T04:32:50.109Z,1011.97
2018-06-05T04:33:50.214Z,1011.95
2018-06-05T04:34:50.174Z,1011.93
2018-06-05T04:35:50.095Z,1011.97
2018-06-05T04:36:50.241Z,1011.95
2018-06-05T04:37:50.134Z,1011.96
2018-06-05T04:38:50.104Z,1011.93
2018-06-05T04:39:50.111Z,1011.91
2018-06-05T04:40:50.118Z,1011.96
2018-06-05T04:41:50.108Z,1011.97
2018-06-05T04:42:50.220Z,1011.98
2018-06-05T04:43:50.137Z,1012.01
2018-06-05T04:44:50.157Z,1012
2018-06-05T04:45:50.111Z,1012.01
2018-06-05T04:46:50.106Z,1012
2018-06-05T04:47:50.374Z,1012.03
2018-06-05T04:48:50.111Z,1012.04
2018-06-05T04:49:50.129Z,1012.02
2018-06-05T04:50:50.106Z,1012.06
2018-06-05T04:51:50.090Z,1012.03
2018-06-05T04:52:50.107Z,1012.05
2018-06-05T04:53:50.172Z,1012.08
2018-06-05T04:54:50.168Z,1012.05
2018-06-05T04:55:50.130Z,1012.13
2018-06-05T04:56:50.105Z,1012.13
2018-06-05T04:57:50.122Z,1012.08
2018-06-05T04:58:50.115Z,1012.08
2018-06-05T04:59:50.266Z,1012.09
2018-06-05T05:00:50.097Z,1012.14
2018-06-05T05:01:50.123Z,1012.12
2018-06-05T05:02:50.102Z,1012.19
2018-06-05T05:03:50.103Z,1012.12
2018-06-05T05:04:50.100Z,1012.18
2018-06-05T05:05:50.129Z,1012.18
2018-06-05T05:06:50.143Z,1012.2
2018-06-05T05:07:50.096Z,1012.19
2018-06-05T05:08:50.147Z,1012.17
2018-06-05T05:09:50.150Z,1012.19
2018-06-05T05:10:50.157Z,1012.17
2018-06-05T05:11:50.171Z,1012.2
2018-06-05T05:12:50.146Z,1012.22
2018-06-05T05:13:50.145Z,1012.2
2018-06-05T05:14:50.092Z,1012.16
2018-06-05T05:15:50.098Z,1012.19
2018-06-05T05:16:50.158Z,1012.2
2018-06-05T05:17:50.190Z,1012.17
2018-06-05T05:18:50.144Z,1012.2
2018-06-05T05:19:50.224Z,1012.17
2018-06-05T05:20:50.208Z,1012.19
2018-06-05T05:21:50.075Z,1012.2
2018-06-05T05:22:50.222Z,1012.19
2018-06-05T05:23:50.149Z,1012.19
2018-06-05T05:24:50.128Z,1012.16
2018-06-05T05:25:50.089Z,1012.22
2018-06-05T05:26:50.090Z,1012.22
2018-06-05T05:27:50.097Z,1012.2
2018-06-05T05:28:50.102Z,1012.22
2018-06-05T05:29:50.103Z,1012.22
2018-06-05T05:30:50.175Z,1012.25
2018-06-05T05:31:50.099Z,1012.26
2018-06-05T05:32:50.080Z,1012.23
2018-06-05T05:33:50.267Z,1012.26
2018-06-05T05:34:50.260Z,1012.26
2018-06-05T05:35:50.121Z,1012.26
2018-06-05T05:36:50.148Z,1012.28
2018-06-05T05:37:50.101Z,1012.26
2018-06-05T05:38:50.143Z,1012.27
2018-06-05T05:39:50.088Z,1012.31
2018-06-05T05:40:50.099Z,1012.32
2018-06-05T05:41:50.079Z,1012.32
2018-06-05T05:42:50.116Z,1012.32
2018-06-05T05:43:50.088Z,1012.32
2018-06-05T05:44:50.128Z,1012.37
2018-06-05T05:45:50.115Z,1012.36
2018-06-05T05:46:50.073Z,1012.39
2018-06-05T05:47:50.090Z,1012.4
2018-06-05T05:48:50.102Z,1012.4
2018-06-05T05:49:50.069Z,1012.42
2018-06-05T05:50:50.090Z,1012.41
2018-06-05T05:51:50.067Z,1012.42
2018-06-05T05:52:50.125Z,1012.44
2018-06-05T05:53:50.101Z,1012.46
2018-06-05T05:54:50.203Z,1012.47
2018-06-05T05:55:50.083Z,1012.45
2018-06-05T05:56:50.101Z,1012.42
2018-06-05T05:57:50.127Z,1012.45
2018-06-05T05:58:50.118Z,1012.41
2018-06-05T05:59:50.084Z,1012.44
2018-06-05T06:00:50.104Z,1012.46
2018-06-05T06:01:50.184Z,1012.45
2018-06-05T06:02:50.163Z,1012.48
2018-06-05T06:03:50.211Z,1012.49
2018-06-05T06:04:50.100Z,1012.51
2018-06-05T06:05:50.092Z,1012.49
2018-06-05T06:06:50.115Z,1012.47
2018-06-05T06:07:50.103Z,1012.5
2018-06-05T06:08:50.073Z,1012.5
2018-06-05T06:09:50.246Z,1012.52
2018-06-05T06:10:50.205Z,1012.51
2018-06-05T06:11:50.106Z,1012.53
2018-06-05T06:12:50.122Z,1012.52
2018-06-05T06:13:50.099Z,1012.56
2018-06-05T06:14:50.083Z,1012.49
2018-06-05T06:15:50.087Z,1012.53
2018-06-05T06:16:50.120Z,1012.52
2018-06-05T06:17:50.103Z,1012.48
2018-06-05T06:18:50.071Z,1012.5
2018-06-05T06:19:50.107Z,1012.5
2018-06-05T06:20:50.073Z,1012.5
2018-06-05T06:21:50.072Z,1012.49
2018-06-05T06:22:50.080Z,1012.45
2018-06-05T06:23:50.062Z,1012.49
2018-06-05T06:24:50.087Z,1012.5
2018-06-05T06:25:50.127Z,1012.49
2018-06-05T06:26:50.076Z,1012.48
2018-06-05T06:27:50.106Z,1012.48
2018-06-05T06:28:50.100Z,1012.47
2018-06-05T06:29:50.408Z,1012.48
2018-06-05T06:30:50.075Z,1012.45
2018-06-05T06:31:50.150Z,1012.47
2018-06-05T06:32:50.065Z,1012.43
2018-06-05T06:33:50.096Z,1012.46
2018-06-05T06:34:50.068Z,1012.46
2018-06-05T06:35:50.135Z,1012.46
2018-06-05T06:36:50.075Z,1012.43
2018-06-05T06:37:50.249Z,1012.42
2018-06-05T06:38:50.090Z,1012.38
2018-06-05T06:39:50.092Z,1012.4
2018-06-05T06:40:50.060Z,1012.41
2018-06-05T06:41:50.227Z,1012.4
2018-06-05T06:42:50.087Z,1012.4
2018-06-05T06:43:50.056Z,1012.43
2018-06-05T06:44:50.118Z,1012.37
2018-06-05T06:45:50.082Z,1012.42
2018-06-05T06:46:50.428Z,1012.44
2018-06-05T06:47:50.066Z,1012.39
2018-06-05T06:48:50.246Z,1012.41
2018-06-05T06:49:50.096Z,1012.41
2018-06-05T06:50:50.095Z,1012.39
2018-06-05T06:51:50.105Z,1012.35
2018-06-05T06:52:50.100Z,1012.36
2018-06-05T06:53:50.071Z,1012.38
2018-06-05T06:54:50.214Z,1012.39
2018-06-05T06:55:50.089Z,1012.39
2018-06-05T06:56:50.072Z,1012.4
2018-06-05T06:57:50.120Z,1012.39
2018-06-05T06:58:50.045Z,1012.37
2018-06-05T06:59:50.061Z,1012.34
2018-06-05T07:00:50.078Z,1012.37
2018-06-05T07:01:50.060Z,1012.39
2018-06-05T07:02:50.047Z,1012.35
2018-06-05T07:03:50.082Z,1012.39
2018-06-05T07:04:50.052Z,1012.39
2018-06-05T07:05:50.060Z,1012.4
2018-06-05T07:06:50.067Z,1012.41
2018-06-05T07:07:50.057Z,1012.38
2018-06-05T07:08:50.114Z,1012.4
2018-06-05T07:09:50.074Z,1012.38
2018-06-05T07:10:50.052Z,1012.36
2018-06-05T07:11:50.135Z,1012.37
2018-06-05T07:12:50.051Z,1012.36
2018-06-05T07:13:50.074Z,1012.41
2018-06-05T07:14:50.054Z,1012.4
2018-06-05T07:15:50.111Z,1012.39
2018-06-05T07:16:50.058Z,1012.37
2018-06-05T07:17:50.197Z,1012.4
2018-06-05T07:18:50.100Z,1012.4
2018-06-05T07:19:50.196Z,1012.38
2018-06-05T07:20:50.074Z,1012.36
2018-06-05T07:21:50.046Z,1012.4
2018-06-05T07:22:50.076Z,1012.39
2018-06-05T07:23:50.047Z,1012.38
2018-06-05T07:24:50.070Z,1012.42
2018-06-05T07:25:50.048Z,1012.39
2018-06-05T07:26:50.065Z,1012.39
2018-06-05T07:27:50.063Z,1012.39
2018-06-05T07:28:50.068Z,1012.41
2018-06-05T07:29:50.233Z,1012.38
2018-06-05T07:30:50.061Z,1012.4
2018-06-05T07:31:50.273Z,1012.4
2018-06-05T07:32:50.044Z,1012.36
2018-06-05T07:33:50.084Z,1012.37
2018-06-05T07:34:50.052Z,1012.4
2018-06-05T07:35:50.099Z,1012.39
2018-06-05T07:36:50.064Z,1012.41
2018-06-05T07:37:50.215Z,1012.35
2018-06-05T07:38:50.185Z,1012.34
2018-06-05T07:39:50.090Z,1012.36
2018-06-05T07:40:50.050Z,1012.38
2018-06-05T07:41:50.057Z,1012.35
2018-06-05T07:42:50.050Z,1012.34
2018-06-05T07:43:50.140Z,1012.3
2018-06-05T07:44:50.034Z,1012.33
2018-06-05T07:45:50.055Z,1012.32
2018-06-05T07:46:50.124Z,1012.32
2018-06-05T07:47:50.076Z,1012.3
2018-06-05T07:48:50.049Z,1012.35
2018-06-05T07:49:50.056Z,1012.35
2018-06-05T07:50:50.039Z,1012.32
2018-06-05T07:51:50.078Z,1012.33
2018-06-05T07:52:50.062Z,1012.35
2018-06-05T07:53:50.053Z,1012.34
2018-06-05T07:54:50.097Z,1012.34
2018-06-05T07:55:50.034Z,1012.33
2018-06-05T07:56:50.046Z,1012.24
2018-06-05T07:57:50.034Z,1012.31
2018-06-05T07:58:50.031Z,1012.32
2018-06-05T07:59:50.036Z,1012.3
2018-06-05T08:00:50.016Z,1012.29
2018-06-05T08:01:50.029Z,1012.27
2018-06-05T08:02:50.029Z,1012.27
2018-06-05T08:03:50.055Z,1012.26
2018-06-05T08:04:50.061Z,1012.26
2018-06-05T08:05:50.047Z,1012.28
2018-06-05T08:06:50.040Z,1012.26
2018-06-05T08:07:50.049Z,1012.25
2018-06-05T08:08:50.037Z,1012.29
2018-06-05T08:09:50.082Z,1012.27
2018-06-05T08:10:50.029Z,1012.26
2018-06-05T08:11:50.132Z,1012.21
2018-06-05T08:12:50.043Z,1012.27
2018-06-05T08:13:50.020Z,1012.2
2018-06-05T08:14:50.048Z,1012.21
2018-06-05T08:15:50.211Z,1012.2
2018-06-05T08:16:50.037Z,1012.2
2018-06-05T08:17:50.017Z,1012.2
2018-06-05T08:18:50.046Z,1012.17
2018-06-05T08:19:50.109Z,1012.2
2018-06-05T08:20:50.038Z,1012.19
2018-06-05T08:21:50.057Z,1012.22
2018-06-05T08:22:50.044Z,1012.2
2018-06-05T08:23:50.062Z,1012.22
2018-06-05T08:24:50.065Z,1012.16
2018-06-05T08:25:50.066Z,1012.15
2018-06-05T08:26:50.104Z,1012.13
2018-06-05T08:27:50.033Z,1012.14
2018-06-05T08:28:50.049Z,1012.13
2018-06-05T08:29:50.194Z,1012.1
2018-06-05T08:30:50.062Z,1012.11
2018-06-05T08:31:50.108Z,1012.1
2018-06-05T08:32:50.060Z,1012.14
2018-06-05T08:33:53.303Z,1012.17
2018-06-05T08:34:51.016Z,1012.14
2018-06-05T08:35:50.066Z,1012.15
2018-06-05T08:36:50.058Z,1012.16
2018-06-05T08:37:50.132Z,1012.1
2018-06-05T08:38:50.027Z,1012.18
2018-06-05T08:39:50.069Z,1012.15
2018-06-05T08:40:50.020Z,1012.17
2018-06-05T08:41:50.060Z,1012.18
2018-06-05T08:42:50.110Z,1012.14
2018-06-05T08:43:50.172Z,1012.13
2018-06-05T08:44:50.160Z,1012.13
2018-06-05T08:45:50.259Z,1012.13
2018-06-05T08:46:50.163Z,1012.16
2018-06-05T08:47:50.040Z,1012.11
2018-06-05T08:48:50.067Z,1012.13
2018-06-05T08:49:50.014Z,1012.12
2018-06-05T08:50:50.032Z,1012.14
2018-06-05T08:51:50.051Z,1012.15
2018-06-05T08:52:50.031Z,1012.15
2018-06-05T08:53:50.076Z,1012.12
2018-06-05T08:54:50.045Z,1012.16
2018-06-05T08:55:50.284Z,1012.1
2018-06-05T08:56:50.019Z,1012.16
2018-06-05T08:57:50.044Z,1012.16
2018-06-05T08:58:50.052Z,1012.16
2018-06-05T08:59:50.100Z,1012.18
2018-06-05T09:00:50.033Z,1012.19
2018-06-05T09:01:50.064Z,1012.19
2018-06-05T09:03:00.354Z,1012.15
2018-06-05T09:03:50.325Z,1012.17
2018-06-05T09:04:50.049Z,1012.16
2018-06-05T09:05:50.068Z,1012.15
2018-06-05T09:06:50.043Z,1012.17
2018-06-05T09:07:50.049Z,1012.18
2018-06-05T09:08:50.037Z,1012.19
2018-06-05T09:09:50.021Z,1012.12
2018-06-05T09:10:50.108Z,1012.15
2018-06-05T09:11:50.000Z,1012.17
2018-06-05T09:12:50.135Z,1012.17
2018-06-05T09:13:50.042Z,1012.17
2018-06-05T09:14:50.037Z,1012.11
2018-06-05T09:15:50.011Z,1012.11
2018-06-05T09:16:50.018Z,1012.08
2018-06-05T09:17:50.025Z,1012.08
2018-06-05T09:18:50.040Z,1012.07
2018-06-05T09:19:49.995Z,1012.07
2018-06-05T09:20:50.019Z,1012.07
2018-06-05T09:21:50.047Z,1012.1
2018-06-05T09:22:50.018Z,1012.06
2018-06-05T09:23:50.013Z,1012.11
2018-06-05T09:24:50.004Z,1012.1
2018-06-05T09:25:50.013Z,1012.12
2018-06-05T09:26:50.492Z,1012.1
2018-06-05T09:27:50.056Z,1012.08
2018-06-05T09:28:50.075Z,1012.07
2018-06-05T09:29:50.131Z,1012.04
2018-06-05T09:30:50.013Z,1012.05
2018-06-05T09:31:50.110Z,1012.03
2018-06-05T09:32:50.046Z,1012
2018-06-05T09:33:50.009Z,1012.01
2018-06-05T09:34:50.017Z,1012.03
2018-06-05T09:35:50.025Z,1011.99
2018-06-05T09:36:50.037Z,1011.99
2018-06-05T09:37:50.310Z,1011.97
2018-06-05T09:38:50.029Z,1011.98
2018-06-05T09:39:50.020Z,1011.95
2018-06-05T09:40:49.995Z,1011.98
2018-06-05T09:41:50.016Z,1011.98
2018-06-05T09:42:50.193Z,1011.99
2018-06-05T09:43:50.014Z,1012.01
2018-06-05T09:44:50.017Z,1012.02
2018-06-05T09:45:50.106Z,1012.01
2018-06-05T09:46:50.186Z,1011.98
2018-06-05T09:47:50.081Z,1011.92
2018-06-05T09:48:50.032Z,1011.97
2018-06-05T09:49:50.059Z,1011.95
2018-06-05T09:50:50.026Z,1011.91
2018-06-05T09:51:50.000Z,1011.93
2018-06-05T09:52:50.014Z,1011.95
2018-06-05T09:53:50.011Z,1011.94
2018-06-05T09:54:50.120Z,1011.9
2018-06-05T09:55:50.024Z,1011.95
2018-06-05T09:56:50.009Z,1011.94
2018-06-05T09:57:50.364Z,1011.97
2018-06-05T09:58:50.088Z,1011.92
2018-06-05T09:59:50.063Z,1011.92
2018-06-05T10:00:50.059Z,1011.92
2018-06-05T10:01:50.025Z,1011.9
2018-06-05T10:02:49.985Z,1011.91
2018-06-05T10:03:50.143Z,1011.86
2018-06-05T10:04:50.106Z,1011.87
2018-06-05T10:05:49.994Z,1011.81
2018-06-05T10:06:50.056Z,1011.83
2018-06-05T10:07:49.986Z,1011.85
2018-06-05T10:08:50.037Z,1011.77
2018-06-05T10:09:50.030Z,1011.74
2018-06-05T10:10:50.040Z,1011.76
2018-06-05T10:11:50.100Z,1011.76
2018-06-05T10:12:50.008Z,1011.77
2018-06-05T10:13:50.404Z,1011.78
2018-06-05T10:14:50.018Z,1011.8
2018-06-05T10:15:50.014Z,1011.75
2018-06-05T10:16:49.985Z,1011.81
2018-06-05T10:17:49.984Z,1011.77
2018-06-05T10:18:50.003Z,1011.75
2018-06-05T10:19:50.000Z,1011.76
2018-06-05T10:20:50.016Z,1011.75
2018-06-05T10:21:49.981Z,1011.79
2018-06-05T10:22:49.974Z,1011.73
2018-06-05T10:23:50.014Z,1011.72
2018-06-05T10:24:49.998Z,1011.77
2018-06-05T10:25:50.031Z,1011.67
2018-06-05T10:26:50.031Z,1011.68
2018-06-05T10:27:50.135Z,1011.73
2018-06-05T10:28:50.012Z,1011.67
2018-06-05T10:29:50.085Z,1011.61
2018-06-05T10:30:50.012Z,1011.62
2018-06-05T10:31:50.024Z,1011.64
2018-06-05T10:32:50.040Z,1011.65
2018-06-05T10:33:50.015Z,1011.65
2018-06-05T10:34:50.130Z,1011.64
2018-06-05T10:35:50.050Z,1011.66
2018-06-05T10:36:49.969Z,1011.61
2018-06-05T10:37:50.009Z,1011.6
2018-06-05T10:38:49.974Z,1011.59
2018-06-05T10:39:49.977Z,1011.56
2018-06-05T10:40:50.006Z,1011.55
2018-06-05T10:41:50.009Z,1011.55
2018-06-05T10:42:49.982Z,1011.47
2018-06-05T10:43:49.991Z,1011.5
2018-06-05T10:44:50.011Z,1011.5
2018-06-05T10:45:50.004Z,1011.49
2018-06-05T10:46:50.006Z,1011.48
2018-06-05T10:47:49.965Z,1011.49
2018-06-05T10:48:50.656Z,1011.49
2018-06-05T10:49:49.961Z,1011.5
2018-06-05T10:50:50.099Z,1011.52
2018-06-05T10:51:49.974Z,1011.46
2018-06-05T10:52:50.000Z,1011.49
2018-06-05T10:53:50.047Z,1011.48
2018-06-05T10:54:49.992Z,1011.44
2018-06-05T10:55:49.991Z,1011.44
2018-06-05T10:56:49.981Z,1011.45
2018-06-05T10:57:50.005Z,1011.48
2018-06-05T10:58:50.023Z,1011.49
2018-06-05T10:59:50.057Z,1011.5
2018-06-05T11:00:49.973Z,1011.53
2018-06-05T11:01:49.966Z,1011.49
2018-06-05T11:02:49.988Z,1011.48
2018-06-05T11:03:50.015Z,1011.49
2018-06-05T11:04:49.974Z,1011.46
2018-06-05T11:05:49.996Z,1011.44
2018-06-05T11:06:49.969Z,1011.47
2018-06-05T11:07:50.057Z,1011.43
2018-06-05T11:08:49.995Z,1011.48
2018-06-05T11:09:49.986Z,1011.42
2018-06-05T11:10:49.994Z,1011.41
2018-06-05T11:11:49.985Z,1011.36
2018-06-05T11:12:50.262Z,1011.35
2018-06-05T11:13:49.992Z,1011.39
2018-06-05T11:14:49.969Z,1011.38
2018-06-05T11:15:49.992Z,1011.32
2018-06-05T11:16:49.967Z,1011.28
2018-06-05T11:17:49.987Z,1011.27
2018-06-05T11:18:50.067Z,1011.28
2018-06-05T11:19:49.963Z,1011.3
2018-06-05T11:20:50.010Z,1011.26
2018-06-05T11:21:50.021Z,1011.2
2018-06-05T11:22:50.008Z,1011.21
2018-06-05T11:23:50.177Z,1011.19
2018-06-05T11:24:50.188Z,1011.22
2018-06-05T11:25:50.131Z,1011.18
2018-06-05T11:26:50.138Z,1011.19
2018-06-05T11:27:49.973Z,1011.14
2018-06-05T11:28:50.041Z,1011.18
2018-06-05T11:29:49.999Z,1011.17
2018-06-05T11:30:50.144Z,1011.22
2018-06-05T11:31:49.993Z,1011.14
2018-06-05T11:32:49.974Z,1011.15
2018-06-05T11:33:50.289Z,1011.17
2018-06-05T11:34:50.008Z,1011.17
2018-06-05T11:35:50.047Z,1011.18
2018-06-05T11:36:50.097Z,1011.13
2018-06-05T11:37:49.971Z,1011.11
2018-06-05T11:38:50.005Z,1011.15
2018-06-05T11:39:49.970Z,1011.14
2018-06-05T11:40:49.985Z,1011.12
2018-06-05T11:41:50.005Z,1011.09
2018-06-05T11:42:49.973Z,1011.11
2018-06-05T11:43:49.978Z,1011.12
2018-06-05T11:44:49.966Z,1011.1
2018-06-05T11:45:50.012Z,1011.1
2018-06-05T11:46:50.044Z,1011.06
2018-06-05T11:47:49.962Z,1011.05
2018-06-05T11:48:49.961Z,1011.02
2018-06-05T11:49:50.022Z,1011.03
2018-06-05T11:50:49.961Z,1011.01
2018-06-05T11:51:49.961Z,1011.04
2018-06-05T11:52:49.954Z,1011.03
2018-06-05T11:53:49.998Z,1011
2018-06-05T11:54:49.977Z,1010.99
2018-06-05T11:55:49.981Z,1011.01
2018-06-05T11:56:50.057Z,1011.03
2018-06-05T11:57:50.064Z,1010.99
2018-06-05T11:58:50.087Z,1011
2018-06-05T11:59:49.955Z,1010.97
2018-06-05T12:00:50.172Z,1010.99
2018-06-05T12:01:50.101Z,1010.99
2018-06-05T12:02:49.949Z,1010.96
2018-06-05T12:03:49.993Z,1010.98
2018-06-05T12:04:49.970Z,1010.95
2018-06-05T12:05:50.023Z,1010.95
2018-06-05T12:06:49.991Z,1010.92
2018-06-05T12:07:50.001Z,1010.91
2018-06-05T12:08:49.982Z,1010.93
2018-06-05T12:09:50.040Z,1010.88